Time;durP1;ratioP1;P1;durP2;ratioP2;P2;SDS_P1;SDS_P2;PMS_P1;PMS_P2;Temp;Humidity;BMP_temperature;BMP_pressure;BME280_temperature;BME280_humidity;BME280_pressure;Samples;Min_cycle;Max_cycle;Signal;HPM_P1;HPM_P2
2023/09/09 00:00:09;;;;;;;17.52;12.38;;;;;;;;;;5074208;28;20233;-94
2023/09/09 00:02:37;;;;;;;18.15;11.32;;;;;;;;;;5073797;28;20201;-95
2023/09/09 00:05:04;;;;;;;15.00;12.35;;;;;;;;;;5074354;28;20281;-95
2023/09/09 00:07:32;;;;;;;15.05;11.32;;;;;;;;;;5074240;28;20195;-94
2023/09/09 00:09:59;;;;;;;15.95;12.07;;;;;;;;;;5073802;28;20210;-95
2023/09/09 00:12:27;;;;;;;15.65;12.68;;;;;;;;;;5074318;28;20199;-96
2023/09/09 00:14:57;;;;;;;15.48;13.73;;;;;;;;;;5074211;28;20209;-93
2023/09/09 00:17:25;;;;;;;17.48;13.60;;;;;;;;;;5073523;28;20229;-94
2023/09/09 00:19:52;;;;;;;17.98;14.02;;;;;;;;;;5073751;28;20567;-95
2023/09/09 00:22:19;;;;;;;19.88;14.38;;;;;;;;;;5073844;28;20203;-95
2023/09/09 00:24:47;;;;;;;16.42;13.40;;;;;;;;;;5073815;28;20191;-95
2023/09/09 00:27:14;;;;;;;15.68;13.85;;;;;;;;;;5074152;28;20256;-96
2023/09/09 00:29:41;;;;;;;21.55;14.00;;;;;;;;;;5073449;28;20236;-95
2023/09/09 00:32:10;;;;;;;18.55;12.82;;;;;;;;;;5073517;28;20300;-95
2023/09/09 00:34:37;;;;;;;17.83;13.55;;;;;;;;;;5073829;28;20237;-95
2023/09/09 00:37:05;;;;;;;17.58;12.93;;;;;;;;;;5073779;28;20199;-94
2023/09/09 00:39:42;;;;;;;;;;;;;;;;;;;;;
2023/09/09 00:42:10;;;;;;;15.48;12.60;;;;;;;;;;5074254;28;20199;-95
2023/09/09 00:44:37;;;;;;;17.58;12.57;;;;;;;;;;5073695;28;20664;-96
2023/09/09 00:47:04;;;;;;;15.82;13.07;;;;;;;;;;5073585;28;20252;-95
2023/09/09 00:49:33;;;;;;;16.55;12.38;;;;;;;;;;5073246;28;20707;-95
2023/09/09 00:52:01;;;;;;;14.05;12.00;;;;;;;;;;5073371;28;20282;-95
2023/09/09 00:54:28;;;;;;;14.23;11.80;;;;;;;;;;5074331;28;20221;-96
2023/09/09 00:56:58;;;;;;;15.07;11.88;;;;;;;;;;5073653;28;20222;-96
2023/09/09 00:59:26;;;;;;;15.75;11.80;;;;;;;;;;5073281;28;20202;-95
2023/09/09 01:01:53;;;;;;;18.85;12.45;;;;;;;;;;5073735;28;20203;-96
2023/09/09 01:04:21;;;;;;;15.82;12.27;;;;;;;;;;5073490;28;20244;-95
2023/09/09 01:06:50;;;;;;;14.52;11.90;;;;;;;;;;5074041;28;20569;-96
2023/09/09 01:09:17;;;;;;;15.27;12.00;;;;;;;;;;5073381;28;20199;-96
2023/09/09 01:11:44;;;;;;;13.23;11.20;;;;;;;;;;5073217;28;20703;-95
2023/09/09 01:14:13;;;;;;;15.55;11.85;;;;;;;;;;5073262;28;20202;-96
2023/09/09 01:16:40;;;;;;;16.17;12.23;;;;;;;;;;5073314;28;20273;-95
2023/09/09 01:19:09;;;;;;;14.77;12.10;;;;;;;;;;5073371;28;20225;-95
2023/09/09 01:21:38;;;;;;;14.35;12.15;;;;;;;;;;5073547;28;20195;-96
2023/09/09 01:24:07;;;;;;;13.68;12.27;;;;;;;;;;5073680;28;20279;-96
2023/09/09 01:26:34;;;;;;;17.92;12.75;;;;;;;;;;5073624;28;20199;-96
2023/09/09 01:29:02;;;;;;;14.10;12.60;;;;;;;;;;5072999;28;20203;-96
2023/09/09 01:31:31;;;;;;;17.52;13.15;;;;;;;;;;5073600;28;20280;-96
2023/09/09 01:33:59;;;;;;;19.73;14.93;;;;;;;;;;5074023;28;20236;-96
2023/09/09 01:36:26;;;;;;;15.70;13.70;;;;;;;;;;5075361;28;20257;-96
2023/09/09 01:38:53;;;;;;;18.85;13.07;;;;;;;;;;5077460;28;20231;-96
2023/09/09 01:41:22;;;;;;;17.00;12.73;;;;;;;;;;5076795;28;20203;-96
2023/09/09 01:43:50;;;;;;;18.48;13.23;;;;;;;;;;5076899;28;20554;-96
2023/09/09 01:46:17;;;;;;;16.48;12.60;;;;;;;;;;5077031;28;20199;-95
2023/09/09 01:48:44;;;;;;;14.85;11.55;;;;;;;;;;5077223;28;20206;-96
2023/09/09 01:51:11;;;;;;;14.88;12.45;;;;;;;;;;5077080;28;20288;-96
2023/09/09 01:53:39;;;;;;;15.32;12.70;;;;;;;;;;5076758;28;20207;-96
2023/09/09 01:56:07;;;;;;;17.15;12.00;;;;;;;;;;5077622;28;20195;-96
2023/09/09 01:58:36;;;;;;;13.10;11.80;;;;;;;;;;5076972;28;20233;-96
2023/09/09 02:01:04;;;;;;;14.95;13.43;;;;;;;;;;5076766;28;20211;-96
2023/09/09 02:03:31;;;;;;;16.67;13.65;;;;;;;;;;5076835;28;20199;-96
2023/09/09 02:05:58;;;;;;;15.07;12.82;;;;;;;;;;5077252;28;20245;-96
2023/09/09 02:08:26;;;;;;;15.57;13.45;;;;;;;;;;5076984;28;20199;-96
2023/09/09 02:10:53;;;;;;;16.30;13.48;;;;;;;;;;5076675;28;20262;-96
2023/09/09 02:13:20;;;;;;;15.82;13.52;;;;;;;;;;5076493;28;20225;-96
2023/09/09 02:15:49;;;;;;;16.98;12.88;;;;;;;;;;5077446;28;20202;-96
2023/09/09 02:18:16;;;;;;;14.82;12.50;;;;;;;;;;5076835;28;20670;-96
2023/09/09 02:20:44;;;;;;;15.70;11.98;;;;;;;;;;5077660;28;20206;-96
2023/09/09 02:23:11;;;;;;;14.38;12.48;;;;;;;;;;5076920;28;20252;-96
2023/09/09 02:25:38;;;;;;;13.95;12.45;;;;;;;;;;5076491;28;20199;-96
2023/09/09 02:28:06;;;;;;;14.25;12.60;;;;;;;;;;5076621;28;20640;-95
2023/09/09 02:30:33;;;;;;;14.05;11.63;;;;;;;;;;5076636;28;20709;-95
2023/09/09 02:33:02;;;;;;;16.50;11.95;;;;;;;;;;5076160;28;20221;-96
2023/09/09 02:35:30;;;;;;;12.55;11.25;;;;;;;;;;5075975;28;20199;-95
2023/09/09 02:37:57;;;;;;;13.93;12.10;;;;;;;;;;5076361;28;20214;-95
2023/09/09 02:40:25;;;;;;;13.40;11.52;;;;;;;;;;5075783;28;20264;-96
2023/09/09 02:42:52;;;;;;;14.15;11.55;;;;;;;;;;5075422;28;20198;-95
2023/09/09 02:45:19;;;;;;;16.73;12.30;;;;;;;;;;5076354;28;20199;-95
2023/09/09 02:47:46;;;;;;;14.80;12.30;;;;;;;;;;5076080;28;20226;-95
2023/09/09 02:50:15;;;;;;;12.75;11.02;;;;;;;;;;5075907;28;20249;-95
2023/09/09 02:52:43;;;;;;;12.52;11.23;;;;;;;;;;5075933;28;20240;-96
2023/09/09 02:55:10;;;;;;;12.07;10.85;;;;;;;;;;5075859;28;20218;-96
2023/09/09 02:57:38;;;;;;;11.70;10.52;;;;;;;;;;5075970;28;20268;-96
2023/09/09 03:00:07;;;;;;;12.93;9.63;;;;;;;;;;5075716;28;20203;-96
2023/09/09 03:02:34;;;;;;;11.55;9.45;;;;;;;;;;5075665;28;20732;-95
2023/09/09 03:05:03;;;;;;;12.75;10.10;;;;;;;;;;5075505;28;20253;-96
2023/09/09 03:07:32;;;;;;;12.60;9.75;;;;;;;;;;5075253;28;20253;-94
2023/09/09 03:09:59;;;;;;;13.18;9.93;;;;;;;;;;5075082;28;20637;-95
2023/09/09 03:12:26;;;;;;;11.43;10.25;;;;;;;;;;5075138;28;20258;-95
2023/09/09 03:14:53;;;;;;;11.05;9.90;;;;;;;;;;5075411;28;20230;-96
2023/09/09 03:17:21;;;;;;;11.70;9.40;;;;;;;;;;5080798;28;20210;-96
2023/09/09 03:19:48;;;;;;;11.38;9.90;;;;;;;;;;5095740;28;20244;-96
2023/09/09 03:22:15;;;;;;;12.73;10.93;;;;;;;;;;5095508;28;20210;-96
2023/09/09 03:24:44;;;;;;;13.18;10.52;;;;;;;;;;5094927;28;20267;-96
2023/09/09 03:27:11;;;;;;;11.68;9.85;;;;;;;;;;5095323;28;20218;-95
2023/09/09 03:29:39;;;;;;;12.20;10.98;;;;;;;;;;5095505;28;20266;-96
2023/09/09 03:32:06;;;;;;;12.35;11.05;;;;;;;;;;5095311;28;20698;-96
2023/09/09 03:34:34;;;;;;;12.43;11.15;;;;;;;;;;5095887;28;20273;-96
2023/09/09 03:37:01;;;;;;;15.02;11.63;;;;;;;;;;5095423;28;20229;-96
2023/09/09 03:39:28;;;;;;;15.75;12.57;;;;;;;;;;5094997;28;20651;-96
2023/09/09 03:41:57;;;;;;;14.43;12.77;;;;;;;;;;5095578;28;20286;-96
2023/09/09 03:44:24;;;;;;;14.90;12.52;;;;;;;;;;5095158;28;20221;-95
2023/09/09 03:46:51;;;;;;;12.23;10.90;;;;;;;;;;5095610;28;20206;-96
2023/09/09 03:49:19;;;;;;;12.88;11.57;;;;;;;;;;5095389;28;20234;-96
2023/09/09 03:51:46;;;;;;;13.65;12.07;;;;;;;;;;5094902;28;20279;-96
2023/09/09 03:54:13;;;;;;;12.55;11.20;;;;;;;;;;5095139;28;20195;-95
2023/09/09 03:56:41;;;;;;;15.18;11.55;;;;;;;;;;5095635;28;20194;-96
2023/09/09 03:59:09;;;;;;;16.42;12.73;;;;;;;;;;5094447;28;20686;-96
2023/09/09 04:01:37;;;;;;;12.85;11.55;;;;;;;;;;5094776;28;20244;-96
2023/09/09 04:04:04;;;;;;;13.68;11.60;;;;;;;;;;5095215;28;20241;-96
2023/09/09 04:06:32;;;;;;;13.68;11.75;;;;;;;;;;5094956;28;20213;-96
2023/09/09 04:08:59;;;;;;;14.45;12.30;;;;;;;;;;5116654;28;20270;-96
2023/09/09 04:11:26;;;;;;;13.57;12.18;;;;;;;;;;5115136;28;20247;-96
2023/09/09 04:13:54;;;;;;;13.60;12.20;;;;;;;;;;5115524;28;20194;-96
2023/09/09 04:16:22;;;;;;;15.65;12.02;;;;;;;;;;5115179;28;20376;-96
2023/09/09 04:18:50;;;;;;;16.60;13.38;;;;;;;;;;5097058;28;20266;-96
2023/09/09 04:21:17;;;;;;;15.43;12.82;;;;;;;;;;5094905;28;20206;-96
2023/09/09 04:23:44;;;;;;;15.63;12.95;;;;;;;;;;5094607;28;20190;-96
2023/09/09 04:26:11;;;;;;;18.48;13.38;;;;;;;;;;5094361;28;20255;-96
2023/09/09 04:28:40;;;;;;;17.45;13.95;;;;;;;;;;5094534;28;20198;-96
2023/09/09 04:31:07;;;;;;;14.65;13.00;;;;;;;;;;5094723;28;20194;-96
2023/09/09 04:33:36;;;;;;;14.63;13.05;;;;;;;;;;5094467;28;20229;-96
2023/09/09 04:36:03;;;;;;;16.60;13.13;;;;;;;;;;5094627;28;20545;-96
2023/09/09 04:38:31;;;;;;;15.30;12.10;;;;;;;;;;5093942;28;20251;-96
2023/09/09 04:40:58;;;;;;;13.48;12.18;;;;;;;;;;5094648;28;20198;-96
2023/09/09 04:43:25;;;;;;;14.23;12.73;;;;;;;;;;5094361;28;20235;-96
2023/09/09 04:45:52;;;;;;;14.60;12.85;;;;;;;;;;5094317;28;20209;-96
2023/09/09 04:48:20;;;;;;;14.30;12.52;;;;;;;;;;5094070;28;20630;-96
2023/09/09 04:50:48;;;;;;;13.48;12.13;;;;;;;;;;5093100;28;20252;-95
2023/09/09 04:53:16;;;;;;;13.32;11.75;;;;;;;;;;5094102;28;20222;-96
2023/09/09 04:55:43;;;;;;;18.42;12.32;;;;;;;;;;5094131;28;20559;-96
2023/09/09 04:58:10;;;;;;;13.27;11.90;;;;;;;;;;5093974;28;20545;-96
2023/09/09 05:00:38;;;;;;;13.35;11.73;;;;;;;;;;5094113;28;20234;-96
2023/09/09 05:03:05;;;;;;;14.10;11.40;;;;;;;;;;5093873;28;20271;-96
2023/09/09 05:05:33;;;;;;;13.93;11.35;;;;;;;;;;5093645;28;20194;-96
2023/09/09 05:08:01;;;;;;;14.55;11.50;;;;;;;;;;5093769;28;20194;-96
2023/09/09 05:10:29;;;;;;;15.43;11.75;;;;;;;;;;5094253;28;20202;-96
2023/09/09 05:12:57;;;;;;;13.77;11.95;;;;;;;;;;5097610;28;20222;-95
2023/09/09 05:15:24;;;;;;;12.68;11.23;;;;;;;;;;5098107;28;20247;-96
2023/09/09 05:17:51;;;;;;;12.77;11.50;;;;;;;;;;5087971;28;20234;-96
2023/09/09 05:20:19;;;;;;;14.05;11.63;;;;;;;;;;5077483;28;20237;-96
2023/09/09 05:22:46;;;;;;;12.50;11.30;;;;;;;;;;5077601;28;20198;-96
2023/09/09 05:25:15;;;;;;;13.40;12.00;;;;;;;;;;5078096;28;20196;-96
2023/09/09 05:27:43;;;;;;;13.30;11.98;;;;;;;;;;5077518;28;20214;-95
2023/09/09 05:30:11;;;;;;;14.70;12.20;;;;;;;;;;5077636;28;20199;-96
2023/09/09 05:32:39;;;;;;;13.23;11.90;;;;;;;;;;5077972;28;20239;-96
2023/09/09 05:35:06;;;;;;;13.93;12.48;;;;;;;;;;5077257;28;20195;-96
2023/09/09 05:37:34;;;;;;;14.38;12.48;;;;;;;;;;5077770;28;20618;-96
2023/09/09 05:40:02;;;;;;;14.65;12.07;;;;;;;;;;5077345;28;20248;-96
2023/09/09 05:42:31;;;;;;;14.93;12.10;;;;;;;;;;5076848;28;20191;-95
2023/09/09 05:44:59;;;;;;;14.32;12.38;;;;;;;;;;5077358;28;20199;-96
2023/09/09 05:47:26;;;;;;;16.17;12.63;;;;;;;;;;5077647;28;20261;-96
2023/09/09 05:49:53;;;;;;;13.90;12.50;;;;;;;;;;5076621;28;20227;-96
2023/09/09 05:52:21;;;;;;;16.15;12.85;;;;;;;;;;5076908;28;20280;-96
2023/09/09 05:54:48;;;;;;;16.20;12.18;;;;;;;;;;5076860;28;20195;-95
2023/09/09 05:57:15;;;;;;;14.68;12.43;;;;;;;;;;5076729;28;20207;-96
2023/09/09 05:59:44;;;;;;;15.88;12.65;;;;;;;;;;5077108;28;20191;-96
2023/09/09 06:02:11;;;;;;;14.40;12.73;;;;;;;;;;5076913;28;20207;-96
2023/09/09 06:04:39;;;;;;;13.75;11.90;;;;;;;;;;5076583;28;20272;-95
2023/09/09 06:07:06;;;;;;;17.65;12.70;;;;;;;;;;5076474;28;20199;-96
2023/09/09 06:09:33;;;;;;;14.57;12.18;;;;;;;;;;5076690;28;20226;-95
2023/09/09 06:12:01;;;;;;;16.75;13.15;;;;;;;;;;5076749;28;20228;-95
2023/09/09 06:14:28;;;;;;;16.73;13.68;;;;;;;;;;5076844;28;20191;-96
2023/09/09 06:16:57;;;;;;;15.57;12.95;;;;;;;;;;5077057;28;20652;-94
2023/09/09 06:19:24;;;;;;;14.65;12.98;;;;;;;;;;5076202;28;20207;-96
2023/09/09 06:21:52;;;;;;;16.38;13.98;;;;;;;;;;5075699;28;20256;-96
2023/09/09 06:24:19;;;;;;;21.67;13.88;;;;;;;;;;5076170;28;20914;-96
2023/09/09 06:26:46;;;;;;;17.10;13.32;;;;;;;;;;5076312;28;20322;-96
2023/09/09 06:29:14;;;;;;;15.55;13.88;;;;;;;;;;5076176;28;20656;-95
2023/09/09 06:31:42;;;;;;;17.23;14.00;;;;;;;;;;5077231;28;20191;-96
2023/09/09 06:34:12;;;;;;;16.70;13.88;;;;;;;;;;5075733;28;20268;-95
2023/09/09 06:36:39;;;;;;;17.17;14.02;;;;;;;;;;5076348;28;20320;-95
2023/09/09 06:39:06;;;;;;;15.73;13.88;;;;;;;;;;5076121;28;20260;-95
2023/09/09 06:41:33;;;;;;;14.13;12.65;;;;;;;;;;5076051;28;20291;-95
2023/09/09 06:44:01;;;;;;;17.15;13.70;;;;;;;;;;5075839;28;20538;-94
2023/09/09 06:46:28;;;;;;;15.27;13.48;;;;;;;;;;5076064;28;20195;-94
2023/09/09 06:48:56;;;;;;;16.73;12.05;;;;;;;;;;5075520;28;20926;-95
2023/09/09 06:51:24;;;;;;;14.88;12.55;;;;;;;;;;5075411;28;20195;-95
2023/09/09 06:53:51;;;;;;;12.98;11.55;;;;;;;;;;5075568;28;20632;-95
2023/09/09 06:56:19;;;;;;;13.30;11.82;;;;;;;;;;5075440;28;20608;-94
2023/09/09 06:58:46;;;;;;;11.82;10.75;;;;;;;;;;5075711;28;20284;-94
2023/09/09 07:01:13;;;;;;;13.23;10.40;;;;;;;;;;5075676;28;20233;-94
2023/09/09 07:03:41;;;;;;;14.43;10.55;;;;;;;;;;5075273;28;20195;-93
2023/09/09 07:06:09;;;;;;;12.13;10.02;;;;;;;;;;5075402;28;20643;-94
2023/09/09 07:08:40;;;;;;;15.48;9.80;;;;;;;;;;5075303;28;20234;-93
2023/09/09 07:11:07;;;;;;;10.93;9.45;;;;;;;;;;5075918;28;20581;-94
2023/09/09 07:13:34;;;;;;;11.10;9.40;;;;;;;;;;5075315;28;20691;-94
2023/09/09 07:16:02;;;;;;;12.38;8.93;;;;;;;;;;5074926;28;20339;-93
2023/09/09 07:18:29;;;;;;;12.65;9.50;;;;;;;;;;5096289;28;20205;-92
2023/09/09 07:20:58;;;;;;;12.50;9.15;;;;;;;;;;5094521;28;20186;-86
2023/09/09 07:23:25;;;;;;;13.07;8.88;;;;;;;;;;5094029;28;20202;-89
2023/09/09 07:25:54;;;;;;;14.60;9.02;;;;;;;;;;5096334;28;20206;-88
2023/09/09 07:28:23;;;;;;;10.48;7.80;;;;;;;;;;5096650;28;20251;-94
2023/09/09 07:30:50;;;;;;;8.90;7.65;;;;;;;;;;5074360;28;20656;-95
2023/09/09 07:33:18;;;;;;;10.18;7.50;;;;;;;;;;5074332;28;20269;-87
2023/09/09 07:35:46;;;;;;;9.63;7.47;;;;;;;;;;5091380;28;20199;-93
2023/09/09 07:38:13;;;;;;;9.43;7.22;;;;;;;;;;5094913;28;20198;-95
2023/09/09 07:40:40;;;;;;;9.65;6.70;;;;;;;;;;5094608;28;20244;-94
2023/09/09 07:43:09;;;;;;;12.05;7.28;;;;;;;;;;5076675;28;20199;-94
2023/09/09 07:45:36;;;;;;;8.38;6.97;;;;;;;;;;5074141;28;20210;-94
2023/09/09 07:48:04;;;;;;;7.35;6.38;;;;;;;;;;5074912;28;20596;-95
2023/09/09 07:50:31;;;;;;;9.13;6.07;;;;;;;;;;5074153;28;20262;-92
2023/09/09 07:52:58;;;;;;;9.55;6.28;;;;;;;;;;5074277;28;20246;-93
2023/09/09 07:55:26;;;;;;;9.00;5.85;;;;;;;;;;5075314;28;20233;-94
2023/09/09 07:57:53;;;;;;;9.70;5.78;;;;;;;;;;5089621;28;20186;-92
2023/09/09 08:00:22;;;;;;;11.73;5.85;;;;;;;;;;5082731;28;20354;-90
2023/09/09 08:02:51;;;;;;;10.40;5.78;;;;;;;;;;5077213;28;20242;-94
2023/09/09 08:05:22;;;;;;;6.90;5.50;;;;;;;;;;5084504;28;20583;-91
2023/09/09 08:07:52;;;;;;;10.57;6.03;;;;;;;;;;5074605;28;20206;-92
2023/09/09 08:10:20;;;;;;;9.80;5.65;;;;;;;;;;5074534;28;20283;-94
2023/09/09 08:12:47;;;;;;;8.07;5.63;;;;;;;;;;5074366;28;20314;-89
2023/09/09 08:15:15;;;;;;;11.20;5.70;;;;;;;;;;5073658;28;20233;-90
2023/09/09 08:17:43;;;;;;;10.57;5.43;;;;;;;;;;5082589;28;20617;-90
2023/09/09 08:20:11;;;;;;;11.95;5.93;;;;;;;;;;5093829;28;20289;-90
2023/09/09 08:22:38;;;;;;;7.30;5.20;;;;;;;;;;5093628;28;20233;-90
2023/09/09 08:25:05;;;;;;;7.18;5.40;;;;;;;;;;5095369;28;20293;-91
2023/09/09 08:27:34;;;;;;;10.90;5.80;;;;;;;;;;5096210;28;20280;-90
2023/09/09 08:30:01;;;;;;;9.88;5.53;;;;;;;;;;5095862;28;20221;-89
2023/09/09 08:32:28;;;;;;;9.52;5.85;;;;;;;;;;5095504;28;20693;-89
2023/09/09 08:34:59;;;;;;;14.07;5.60;;;;;;;;;;5096062;28;20273;-90
2023/09/09 08:37:27;;;;;;;13.15;5.20;;;;;;;;;;5095828;28;20198;-86
2023/09/09 08:39:55;;;;;;;11.07;4.90;;;;;;;;;;5094921;28;20800;-86
2023/09/09 08:42:28;;;;;;;12.43;5.15;;;;;;;;;;5095179;28;20301;-86
2023/09/09 08:44:59;;;;;;;9.65;5.50;;;;;;;;;;5094323;28;20190;-85
2023/09/09 08:47:29;;;;;;;11.18;5.18;;;;;;;;;;5093912;28;20247;-85
2023/09/09 08:50:01;;;;;;;11.98;5.13;;;;;;;;;;5092873;28;20230;-84
2023/09/09 08:52:28;;;;;;;9.68;5.32;;;;;;;;;;5093237;28;20200;-86
2023/09/09 08:54:55;;;;;;;11.25;5.38;;;;;;;;;;5092579;28;20545;-86
2023/09/09 08:57:23;;;;;;;8.55;4.78;;;;;;;;;;5092846;28;20234;-86
2023/09/09 08:59:50;;;;;;;10.18;5.30;;;;;;;;;;5093494;28;20686;-86
2023/09/09 09:02:18;;;;;;;9.00;4.93;;;;;;;;;;5094675;28;20209;-86
2023/09/09 09:04:48;;;;;;;8.73;4.72;;;;;;;;;;5092679;28;20233;-85
2023/09/09 09:07:27;;;;;;;9.52;4.90;;;;;;;;;;5095611;28;20234;-86
2023/09/09 09:10:01;;;;;;;9.15;5.13;;;;;;;;;;5097810;28;20229;-87
2023/09/09 09:12:40;;;;;;;12.77;5.18;;;;;;;;;;5102101;28;20650;-84
2023/09/09 09:15:07;;;;;;;10.82;5.00;;;;;;;;;;5094158;28;20198;-85
2023/09/09 09:17:39;;;;;;;9.70;5.28;;;;;;;;;;5092564;28;20281;-87
2023/09/09 09:20:07;;;;;;;9.52;5.30;;;;;;;;;;5091076;28;20233;-85
2023/09/09 09:22:37;;;;;;;9.82;4.88;;;;;;;;;;5072686;28;20226;-86
2023/09/09 09:25:04;;;;;;;9.45;4.70;;;;;;;;;;5072507;28;20364;-85
2023/09/09 09:27:32;;;;;;;12.65;4.93;;;;;;;;;;5071567;28;20289;-85
2023/09/09 09:29:59;;;;;;;7.57;4.75;;;;;;;;;;5073399;28;20226;-86
2023/09/09 09:32:40;;;;;;;6.35;4.22;;;;;;;;;;5072523;28;20194;-87
2023/09/09 09:35:08;;;;;;;9.43;4.75;;;;;;;;;;5073057;28;20292;-87
2023/09/09 09:37:38;;;;;;;8.38;4.75;;;;;;;;;;5075509;28;20206;-86
2023/09/09 09:40:07;;;;;;;7.65;4.50;;;;;;;;;;5080437;28;20234;-90
2023/09/09 09:42:37;;;;;;;9.00;4.82;;;;;;;;;;5081727;28;20202;-86
2023/09/09 09:45:09;;;;;;;12.32;4.68;;;;;;;;;;5078452;28;20199;-86
2023/09/09 09:47:43;;;;;;;12.32;4.70;;;;;;;;;;5072146;28;20241;-85
2023/09/09 09:50:17;;;;;;;9.32;5.30;;;;;;;;;;5071252;28;20611;-86
2023/09/09 09:52:49;;;;;;;9.50;4.70;;;;;;;;;;5071761;28;20206;-85
2023/09/09 09:55:20;;;;;;;9.88;4.78;;;;;;;;;;5071845;28;20199;-87
2023/09/09 09:57:47;;;;;;;9.65;4.90;;;;;;;;;;5080641;28;20267;-87
2023/09/09 10:00:15;;;;;;;7.13;4.82;;;;;;;;;;5075825;28;20206;-87
2023/09/09 10:02:43;;;;;;;8.57;5.47;;;;;;;;;;5081732;28;20234;-87
2023/09/09 10:05:12;;;;;;;9.13;5.22;;;;;;;;;;5076979;28;20293;-86
2023/09/09 10:07:41;;;;;;;11.93;5.85;;;;;;;;;;5085714;28;20698;-84
2023/09/09 10:10:15;;;;;;;8.73;5.18;;;;;;;;;;5078316;28;20222;-85
2023/09/09 10:12:44;;;;;;;14.27;5.28;;;;;;;;;;5090146;28;20225;-85
2023/09/09 10:15:12;;;;;;;6.47;4.78;;;;;;;;;;5090530;28;20313;-84
2023/09/09 10:17:40;;;;;;;11.65;5.03;;;;;;;;;;5084932;28;20233;-85
2023/09/09 10:20:08;;;;;;;7.47;4.78;;;;;;;;;;5095860;28;20634;-84
2023/09/09 10:22:37;;;;;;;10.30;5.22;;;;;;;;;;5078723;28;20290;-89
2023/09/09 10:25:04;;;;;;;7.03;4.60;;;;;;;;;;5077304;28;20242;-86
2023/09/09 10:27:33;;;;;;;8.45;5.35;;;;;;;;;;5076068;28;20195;-85
2023/09/09 10:30:03;;;;;;;8.02;4.82;;;;;;;;;;5079776;28;20194;-83
2023/09/09 10:32:31;;;;;;;10.23;5.22;;;;;;;;;;5082315;28;20282;-84
2023/09/09 10:34:59;;;;;;;7.40;5.05;;;;;;;;;;5083909;28;20253;-88
2023/09/09 10:37:28;;;;;;;8.52;5.40;;;;;;;;;;5088085;28;20664;-93
2023/09/09 10:39:55;;;;;;;9.40;5.13;;;;;;;;;;5092015;28;20194;-88
2023/09/09 10:42:23;;;;;;;6.35;4.70;;;;;;;;;;5089853;28;20765;-92
2023/09/09 10:44:55;;;;;;;8.57;5.05;;;;;;;;;;5098636;28;20213;-91
2023/09/09 10:47:22;;;;;;;10.60;5.35;;;;;;;;;;5080502;28;20225;-93
2023/09/09 10:50:03;;;;;;;6.03;4.63;;;;;;;;;;5077415;28;20261;-92
2023/09/09 10:52:31;;;;;;;10.55;4.97;;;;;;;;;;5086880;28;20200;-93
2023/09/09 10:55:11;;;;;;;9.80;5.13;;;;;;;;;;5086273;28;20231;-93
2023/09/09 10:57:39;;;;;;;8.10;4.55;;;;;;;;;;5104471;28;20197;-93
2023/09/09 11:00:10;;;;;;;8.15;4.43;;;;;;;;;;5117881;28;20193;-90
2023/09/09 11:02:45;;;;;;;9.07;4.88;;;;;;;;;;5118759;28;20599;-92
2023/09/09 11:05:12;;;;;;;5.30;4.63;;;;;;;;;;5118033;28;20213;-91
2023/09/09 11:07:40;;;;;;;5.88;4.65;;;;;;;;;;5117325;28;20228;-91
2023/09/09 11:10:08;;;;;;;9.75;5.00;;;;;;;;;;5118069;28;20807;-92
2023/09/09 11:12:37;;;;;;;7.60;4.28;;;;;;;;;;5083222;28;20194;-93
2023/09/09 11:15:09;;;;;;;10.05;4.60;;;;;;;;;;5077780;28;20234;-93
2023/09/09 11:17:37;;;;;;;9.00;4.80;;;;;;;;;;5084897;28;20229;-93
2023/09/09 11:20:04;;;;;;;8.82;4.50;;;;;;;;;;5076907;28;20563;-93
2023/09/09 11:22:32;;;;;;;6.15;4.40;;;;;;;;;;5077067;28;20671;-93
2023/09/09 11:24:59;;;;;;;9.25;4.70;;;;;;;;;;5088152;28;20651;-93
2023/09/09 11:27:27;;;;;;;6.00;4.05;;;;;;;;;;5096243;28;20251;-94
2023/09/09 11:29:54;;;;;;;6.57;4.50;;;;;;;;;;5085567;28;20232;-90
2023/09/09 11:32:26;;;;;;;9.05;4.38;;;;;;;;;;5098196;28;21014;-93
2023/09/09 11:34:54;;;;;;;6.97;3.95;;;;;;;;;;5117361;28;20221;-89
2023/09/09 11:37:22;;;;;;;6.65;4.32;;;;;;;;;;5115992;28;20231;-88
2023/09/09 11:39:49;;;;;;;4.60;4.05;;;;;;;;;;5096379;28;20250;-88
2023/09/09 11:42:17;;;;;;;9.27;4.57;;;;;;;;;;5078947;28;20199;-88
2023/09/09 11:44:46;;;;;;;7.72;4.40;;;;;;;;;;5077951;28;20283;-86
2023/09/09 11:47:14;;;;;;;8.25;3.60;;;;;;;;;;5086581;28;20281;-92
2023/09/09 11:49:45;;;;;;;5.78;3.55;;;;;;;;;;5077347;28;20230;-95
2023/09/09 11:52:13;;;;;;;6.28;3.67;;;;;;;;;;5078077;28;20240;-94
2023/09/09 11:54:43;;;;;;;4.93;3.65;;;;;;;;;;5087419;28;20222;-94
2023/09/09 11:57:11;;;;;;;6.85;3.92;;;;;;;;;;5094943;28;20198;-93
2023/09/09 11:59:45;;;;;;;4.90;3.50;;;;;;;;;;5077247;28;20732;-93
2023/09/09 12:02:19;;;;;;;5.13;4.00;;;;;;;;;;5088134;28;20289;-92
2023/09/09 12:04:58;;;;;;;5.82;3.72;;;;;;;;;;5079127;28;20237;-94
2023/09/09 12:07:27;;;;;;;4.50;3.70;;;;;;;;;;5076457;28;20281;-94
2023/09/09 12:09:54;;;;;;;4.68;3.67;;;;;;;;;;5076941;28;20236;-94
2023/09/09 12:12:22;;;;;;;4.05;3.60;;;;;;;;;;5083412;28;20259;-93
2023/09/09 12:14:49;;;;;;;5.25;3.55;;;;;;;;;;5094666;28;20267;-93
2023/09/09 12:17:17;;;;;;;5.82;3.75;;;;;;;;;;5086468;28;20686;-91
2023/09/09 12:19:45;;;;;;;4.60;3.20;;;;;;;;;;5096648;28;20581;-93
2023/09/09 12:22:28;;;;;;;5.70;3.55;;;;;;;;;;5091293;28;20201;-92
2023/09/09 12:24:59;;;;;;;3.88;3.28;;;;;;;;;;5076931;28;20194;-93
2023/09/09 12:27:40;;;;;;;6.63;3.60;;;;;;;;;;5076027;28;20198;-92
2023/09/09 12:30:08;;;;;;;3.40;3.08;;;;;;;;;;5092880;28;20263;-91
2023/09/09 12:32:35;;;;;;;3.50;3.25;;;;;;;;;;5094635;28;20198;-86
2023/09/09 12:35:03;;;;;;;4.35;3.30;;;;;;;;;;5092244;28;20771;-88
2023/09/09 12:37:31;;;;;;;5.35;3.20;;;;;;;;;;5074176;28;20210;-91
2023/09/09 12:40:02;;;;;;;4.18;3.45;;;;;;;;;;5072286;28;20198;-95
2023/09/09 12:42:29;;;;;;;4.80;3.25;;;;;;;;;;5075239;28;20195;-95
2023/09/09 12:44:56;;;;;;;4.88;3.40;;;;;;;;;;5073963;28;20250;-95
2023/09/09 12:47:24;;;;;;;3.50;3.10;;;;;;;;;;5073486;28;20202;-95
2023/09/09 12:49:51;;;;;;;3.92;3.47;;;;;;;;;;5073101;28;20230;-94
2023/09/09 12:52:18;;;;;;;6.15;3.33;;;;;;;;;;5073289;28;20202;-93
2023/09/09 12:54:47;;;;;;;5.07;3.15;;;;;;;;;;5090992;28;20244;-93
2023/09/09 12:57:14;;;;;;;3.67;2.80;;;;;;;;;;5087547;28;20226;-91
2023/09/09 12:59:41;;;;;;;5.15;3.55;;;;;;;;;;5080284;28;20210;-91
2023/09/09 13:02:08;;;;;;;3.60;3.30;;;;;;;;;;5113663;28;20239;-91
2023/09/09 13:04:36;;;;;;;4.90;3.00;;;;;;;;;;5075330;28;20225;-92
2023/09/09 13:07:03;;;;;;;3.97;3.60;;;;;;;;;;5076428;28;20198;-91
2023/09/09 13:09:30;;;;;;;5.93;3.33;;;;;;;;;;5086334;28;20277;-91
2023/09/09 13:11:59;;;;;;;4.60;3.35;;;;;;;;;;5080233;28;20277;-91
2023/09/09 13:14:26;;;;;;;4.13;3.38;;;;;;;;;;5081817;28;20751;-89
2023/09/09 13:16:53;;;;;;;3.55;3.25;;;;;;;;;;5082045;28;20258;-89
2023/09/09 13:19:21;;;;;;;4.25;3.22;;;;;;;;;;5079452;28;20225;-88
2023/09/09 13:21:49;;;;;;;5.85;3.38;;;;;;;;;;5083103;28;20533;-87
2023/09/09 13:24:17;;;;;;;4.13;3.45;;;;;;;;;;5082239;28;20197;-87
2023/09/09 13:26:46;;;;;;;4.88;3.38;;;;;;;;;;5081091;28;20205;-88
2023/09/09 13:29:15;;;;;;;4.07;3.47;;;;;;;;;;5072206;28;20224;-85
2023/09/09 13:31:42;;;;;;;6.63;3.50;;;;;;;;;;5071958;28;20715;-85
2023/09/09 13:34:09;;;;;;;4.22;3.25;;;;;;;;;;5078677;28;20230;-83
2023/09/09 13:36:37;;;;;;;5.15;3.92;;;;;;;;;;5094624;28;20247;-82
2023/09/09 13:39:04;;;;;;;4.10;3.60;;;;;;;;;;5094867;28;20194;-82
2023/09/09 13:41:31;;;;;;;7.45;3.80;;;;;;;;;;5094456;28;20629;-81
2023/09/09 13:43:58;;;;;;;4.75;3.50;;;;;;;;;;5094607;28;20734;-81
2023/09/09 13:46:27;;;;;;;5.45;3.55;;;;;;;;;;5086070;28;20311;-82
2023/09/09 13:48:54;;;;;;;5.65;3.60;;;;;;;;;;5081505;28;20220;-82
2023/09/09 13:51:22;;;;;;;6.63;3.63;;;;;;;;;;5084280;28;20218;-83
2023/09/09 13:53:49;;;;;;;3.80;3.50;;;;;;;;;;5083260;28;20213;-82
2023/09/09 13:56:16;;;;;;;5.55;3.70;;;;;;;;;;5084253;28;20217;-82
2023/09/09 13:58:44;;;;;;;4.32;3.28;;;;;;;;;;5084186;28;20222;-82
2023/09/09 14:01:11;;;;;;;6.80;3.55;;;;;;;;;;5081776;28;20947;-82
2023/09/09 14:03:39;;;;;;;6.32;3.55;;;;;;;;;;5083525;28;20222;-82
2023/09/09 14:06:08;;;;;;;6.30;3.45;;;;;;;;;;5082610;28;20274;-83
2023/09/09 14:08:35;;;;;;;7.43;3.60;;;;;;;;;;5084227;28;20287;-82
2023/09/09 14:11:03;;;;;;;4.85;3.33;;;;;;;;;;5085292;28;20230;-82
2023/09/09 14:13:30;;;;;;;7.13;3.40;;;;;;;;;;5098967;28;20242;-82
2023/09/09 14:15:58;;;;;;;8.23;3.72;;;;;;;;;;5089631;28;20206;-82
2023/09/09 14:18:25;;;;;;;6.45;3.30;;;;;;;;;;5081466;28;20285;-84
2023/09/09 14:20:54;;;;;;;3.88;3.03;;;;;;;;;;5077244;28;20281;-84
2023/09/09 14:23:21;;;;;;;6.88;3.40;;;;;;;;;;5074579;28;20285;-83
2023/09/09 14:25:49;;;;;;;3.85;3.10;;;;;;;;;;5091893;28;20205;-83
2023/09/09 14:28:16;;;;;;;6.95;3.42;;;;;;;;;;5084524;28;20201;-83
2023/09/09 14:30:45;;;;;;;6.32;3.30;;;;;;;;;;5073717;28;20194;-84
2023/09/09 14:33:13;;;;;;;5.10;3.20;;;;;;;;;;5091441;28;20185;-84
2023/09/09 14:35:46;;;;;;;6.45;3.72;;;;;;;;;;5096552;28;20221;-83